If you wish to contribute or participate in the discussions about articles you are invited to join SKYbrary as a registered user

 Actions

Olympic Dam Airport

From SKYbrary Wiki

YOLD
Airport
ICAO: YOLD – IATA: OLP
Summary
Name Olympic Dam Airport
Region Asia and Pacific
Territory Australia AU.gif
Location Olympic Dam, South Australia
Serving Olympic Dam
Elevation 104.546 m <br />343 ft <br />343 ft104.546 m <br />
Type small airport
Coordinates 30° 29' 6.00" S, 136° 52' 37.20" E
Runways
Designator Length Width Surface ROPS
6/24 1591 m5,219.816 ft <br /> 30 m98.425 ft <br /> ASP /


METAR
Observation YOLD 270200Z AUTO 01019KT 9999 // NCD 33/01 Q1008
Station Olympic Dam Airport
Date/Time 27 October 2021 02:00:00
Wind direction 10°
Wind speed 19 kts
Lowest cloud amount no clouds detected
Temperature 33°C
Dew point 1°C
Humidity 13%
QNH 1008 hPa
Weather condition n/a